Paskenta, California
Current Conditions -  °F | °C
As of 4:54 AM on Sunday 21 Dec 2014 (Local Time) from KRBL Reporting Station
Overcast Overcast  
Wind Chill: 53°   Ceiling: 1600
Heat Index: 53°   Visibility: 8mi
Dew Point: 52°   Wind: 7mph
Humidity: 96%   Direction: 170°S
Pressure: 30.23"   Gusts: NA
Location:  39.88°N, 122.55°W
Report Text: KRBL 211254Z AUTO 17006KT 8SM OVC016 12/11 A3023 RMK AO2 RAE45 SLP237 P0002 T01170111
Loading
Personal Weather Stations






























Interactive Weather Map New forecast layout! Learn more

10-Day Weather Forecast

Advertisements
Track Severe Weather on mobile